Time;durP1;ratioP1;P1;durP2;ratioP2;P2;SDS_P1;SDS_P2;PMS_P1;PMS_P2;Temp;Humidity;BMP_temperature;BMP_pressure;BME280_temperature;BME280_humidity;BME280_pressure;Samples;Min_cycle;Max_cycle;Signal;HPM_P1;HPM_P2
2023/12/28 00:01:42;;;;;;;3.58;3.28;;;;;;;6.27;55.68;98053.56;5040132;28;20198;-75
2023/12/28 00:04:08;;;;;;;3.53;3.22;;;;;;;6.52;53.31;98059.63;5038624;28;20215;-75
2023/12/28 00:06:35;;;;;;;2.65;2.45;;;;;;;6.82;51.83;98064.19;5038998;28;20212;-75
2023/12/28 00:09:02;;;;;;;2.53;2.33;;;;;;;7.18;50.23;98052.81;5038474;28;20575;-75
2023/12/28 00:11:29;;;;;;;2.55;2.35;;;;;;;7.48;49.68;98051.03;5039558;28;20571;-75
2023/12/28 00:13:55;;;;;;;2.40;2.20;;;;;;;7.65;48.04;98049.88;5039339;28;20228;-74
2023/12/28 00:16:25;;;;;;;2.25;2.00;;;;;;;8.04;46.66;98050.47;5039543;28;20213;-75
2023/12/28 00:18:51;;;;;;;1.95;1.85;;;;;;;8.48;44.94;98051.47;5038242;28;20200;-74
2023/12/28 00:21:27;;;;;;;1.88;1.77;;;;;;;8.74;44.25;98054.53;5040021;28;20294;-75
2023/12/28 00:23:54;;;;;;;1.92;1.80;;;;;;;9.09;42.73;98059.06;5035718;28;20223;-75
2023/12/28 00:26:21;;;;;;;2.05;1.95;;;;;;;9.22;42.25;98061.03;5038358;28;20243;-75
2023/12/28 00:28:49;;;;;;;2.67;1.90;;;;;;;9.42;41.61;98066.63;5039415;28;20204;-75
2023/12/28 00:31:16;;;;;;;2.20;2.00;;;;;;;9.56;40.90;98073.81;5037475;28;20208;-75
2023/12/28 00:33:44;;;;;;;1.90;1.80;;;;;;;9.65;40.94;98071.81;5039286;28;20209;-74
2023/12/28 00:36:11;;;;;;;1.80;1.70;;;;;;;9.74;40.97;98067.94;5006657;28;20685;-74
2023/12/28 00:38:37;;;;;;;2.38;2.17;;;;;;;9.72;40.94;98073.53;5037027;28;20210;-75
2023/12/28 00:41:04;;;;;;;2.30;1.85;;;;;;;9.61;41.23;98071.38;5022490;28;20279;-74
2023/12/28 00:43:31;;;;;;;1.60;1.50;;;;;;;9.49;41.95;98077.47;5022878;28;20260;-75
2023/12/28 00:46:00;;;;;;;2.88;1.90;;;;;;;9.47;42.00;98063.31;5022866;28;20201;-74
2023/12/28 00:48:26;;;;;;;2.50;1.88;;;;;;;9.37;42.25;98061.81;5036955;28;20202;-74
2023/12/28 00:50:58;;;;;;;2.25;2.08;;;;;;;9.39;41.81;98073.25;5038006;28;20297;-74
2023/12/28 00:53:25;;;;;;;3.53;1.98;;;;;;;9.26;42.60;98072.28;5041882;28;20578;-75
2023/12/28 00:55:52;;;;;;;2.10;1.90;;;;;;;9.15;43.10;98070.09;5041300;28;20208;-75
2023/12/28 00:58:18;;;;;;;1.90;1.80;;;;;;;9.03;43.10;98046.31;5037508;28;20233;-75
2023/12/28 01:00:45;;;;;;;2.00;1.90;;;;;;;8.99;43.13;98055.81;5038361;28;20263;-75
2023/12/28 01:03:11;;;;;;;3.08;2.28;;;;;;;8.88;43.34;98063.59;5034678;28;20702;-75
2023/12/28 01:05:38;;;;;;;3.00;2.38;;;;;;;8.86;43.18;98071.03;5036498;28;20213;-75
2023/12/28 01:08:07;;;;;;;2.22;2.05;;;;;;;8.70;44.07;98072.94;5040357;28;20292;-75
2023/12/28 01:10:33;;;;;;;1.90;1.80;;;;;;;8.65;43.71;98080.78;5038403;28;20202;-75
2023/12/28 01:12:59;;;;;;;2.63;2.20;;;;;;;8.63;44.05;98077.41;5037254;28;20286;-75
2023/12/28 01:15:25;;;;;;;2.40;2.10;;;;;;;8.60;44.36;98085.88;5050384;28;20240;-75
2023/12/28 01:17:53;;;;;;;2.53;2.33;;;;;;;8.53;44.63;98082.25;5036141;28;20212;-75
2023/12/28 01:20:20;;;;;;;1.90;1.80;;;;;;;8.37;45.01;98083.31;5034303;28;20226;-74
2023/12/28 01:22:47;;;;;;;2.05;1.83;;;;;;;8.29;45.05;98085.22;5033040;28;20689;-76
2023/12/28 01:25:15;;;;;;;2.20;2.00;;;;;;;8.27;45.59;98082.72;5023297;28;20212;-75
2023/12/28 01:27:42;;;;;;;2.53;1.88;;;;;;;8.14;45.61;98069.03;5040147;28;20292;-74
2023/12/28 01:30:09;;;;;;;2.47;1.90;;;;;;;8.14;45.99;98082.53;5052174;28;20209;-75
2023/12/28 01:32:36;;;;;;;2.50;2.30;;;;;;;8.08;46.04;98086.81;5035480;28;20201;-75
2023/12/28 01:35:02;;;;;;;2.05;1.80;;;;;;;7.95;46.05;98093.88;5038945;28;20209;-75
2023/12/28 01:37:31;;;;;;;1.80;1.70;;;;;;;8.05;46.01;98095.28;5038248;28;20263;-75
2023/12/28 01:39:56;;;;;;;2.28;2.08;;;;;;;8.03;45.89;98086.53;5036996;28;20288;-75
2023/12/28 01:42:24;;;;;;;2.60;2.30;;;;;;;8.07;45.84;98097.78;5036641;28;20205;-74
2023/12/28 01:44:51;;;;;;;2.38;1.88;;;;;;;8.10;46.21;98100.13;5017623;28;20304;-75
2023/12/28 01:47:18;;;;;;;2.03;1.85;;;;;;;7.91;47.19;98109.56;5037950;28;20209;-75
2023/12/28 01:49:44;;;;;;;2.00;1.80;;;;;;;7.82;47.22;98110.66;5055247;28;20290;-75
2023/12/28 01:52:11;;;;;;;2.05;1.90;;;;;;;7.86;46.85;98111.13;5022421;28;20212;-75
2023/12/28 01:54:39;;;;;;;1.95;1.75;;;;;;;7.77;47.36;98112.25;5045121;28;20255;-75
2023/12/28 01:57:05;;;;;;;2.03;1.92;;;;;;;7.82;47.49;98116.03;5043959;28;20235;-75
2023/12/28 01:59:34;;;;;;;2.70;2.00;;;;;;;7.67;47.87;98117.88;5039740;28;20284;-74
2023/12/28 02:02:00;;;;;;;1.83;1.73;;;;;;;7.56;48.06;98116.44;5025395;28;20197;-75
2023/12/28 02:04:28;;;;;;;2.10;2.00;;;;;;;7.54;47.93;98128.41;5041359;28;20217;-76
2023/12/28 02:06:57;;;;;;;2.30;2.00;;;;;;;7.56;47.70;98139.84;5041870;28;20577;-74
2023/12/28 02:09:24;;;;;;;2.17;1.92;;;;;;;7.62;47.90;98136.44;5026042;28;20212;-75
2023/12/28 02:11:50;;;;;;;2.50;1.95;;;;;;;7.59;47.83;98136.78;5042139;28;20202;-75
2023/12/28 02:14:17;;;;;;;1.65;1.45;;;;;;;7.55;48.11;98133.63;5041522;28;20212;-75
2023/12/28 02:16:47;;;;;;;2.53;2.15;;;;;;;7.58;48.25;98135.13;5040264;28;20221;-75
2023/12/28 02:19:22;;;;;;;2.20;2.00;;;;;;;7.53;48.41;98138.34;5039759;28;20201;-75
2023/12/28 02:21:49;;;;;;;2.00;1.90;;;;;;;7.48;48.36;98138.06;5041938;28;20553;-75
2023/12/28 02:24:15;;;;;;;1.92;1.83;;;;;;;7.54;48.39;98137.34;5038381;28;20775;-75
2023/12/28 02:26:44;;;;;;;2.10;1.90;;;;;;;7.50;48.25;98137.88;5023183;28;20216;-75
2023/12/28 02:29:10;;;;;;;2.33;2.13;;;;;;;7.58;47.33;98140.50;5039646;28;20255;-75
2023/12/28 02:31:41;;;;;;;2.50;2.30;;;;;;;7.65;47.06;98136.91;5041175;28;20247;-75
2023/12/28 02:34:14;;;;;;;1.90;1.70;;;;;;;7.68;46.68;98141.09;5042262;28;20216;-75
2023/12/28 02:36:45;;;;;;;1.95;1.85;;;;;;;7.83;46.89;98133.88;5037703;28;20194;-75
2023/12/28 02:39:13;;;;;;;3.20;2.05;;;;;;;7.89;46.21;98117.00;5039630;28;20201;-75
2023/12/28 02:41:40;;;;;;;2.10;2.00;;;;;;;7.99;46.52;98122.97;5039557;28;20204;-75
2023/12/28 02:44:08;;;;;;;1.92;1.80;;;;;;;8.00;46.65;98124.63;5040500;28;20230;-75
2023/12/28 02:46:35;;;;;;;1.85;1.70;;;;;;;7.99;47.02;98125.66;5041608;28;20209;-75
2023/12/28 02:49:02;;;;;;;2.13;1.80;;;;;;;7.82;46.99;98134.06;5041775;28;20305;-75
2023/12/28 02:51:29;;;;;;;2.42;1.95;;;;;;;7.75;47.22;98128.59;5057162;28;20220;-75
2023/12/28 02:53:56;;;;;;;1.80;1.70;;;;;;;7.83;46.88;98115.03;5023962;28;20201;-74
2023/12/28 02:56:22;;;;;;;2.20;2.00;;;;;;;7.78;46.77;98114.75;5038714;28;20216;-75
2023/12/28 02:58:49;;;;;;;1.90;1.70;;;;;;;7.79;46.70;98111.03;5043263;28;20239;-75
2023/12/28 03:01:17;;;;;;;1.75;1.65;;;;;;;7.80;47.19;98123.47;5042764;28;20205;-75
2023/12/28 03:03:45;;;;;;;2.28;1.63;;;;;;;7.72;47.34;98135.19;5041492;28;20300;-75
2023/12/28 03:06:12;;;;;;;1.77;1.60;;;;;;;7.65;47.69;98131.53;5039666;28;20292;-75
2023/12/28 03:08:39;;;;;;;2.20;2.00;;;;;;;7.60;47.65;98139.31;5036419;28;20975;-75
2023/12/28 03:11:05;;;;;;;2.15;2.00;;;;;;;7.67;47.27;98131.34;5039418;28;20204;-75
2023/12/28 03:13:32;;;;;;;1.80;1.70;;;;;;;7.77;47.38;98129.25;5040209;28;20284;-75
2023/12/28 03:15:59;;;;;;;1.80;1.70;;;;;;;7.94;46.54;98128.06;5040716;28;20686;-76
2023/12/28 03:18:27;;;;;;;2.72;2.13;;;;;;;7.95;46.55;98124.34;5039800;28;20732;-74
2023/12/28 03:20:53;;;;;;;2.10;1.65;;;;;;;7.98;46.55;98131.22;5040482;28;20205;-75
2023/12/28 03:23:20;;;;;;;3.33;2.38;;;;;;;7.67;47.44;98132.19;5012509;28;20285;-74
2023/12/28 03:25:47;;;;;;;2.03;1.70;;;;;;;7.78;47.50;98130.94;5038134;28;20222;-75
2023/12/28 03:28:13;;;;;;;2.17;1.98;;;;;;;7.71;47.56;98127.28;5041612;28;20209;-75
2023/12/28 03:30:40;;;;;;;2.00;1.80;;;;;;;7.58;47.71;98121.66;5038568;28;20932;-74
2023/12/28 03:33:06;;;;;;;1.75;1.65;;;;;;;7.57;48.09;98118.13;5039284;28;20294;-74
2023/12/28 03:35:34;;;;;;;1.98;1.70;;;;;;;7.48;48.44;98111.13;5053749;28;20224;-73
2023/12/28 03:38:01;;;;;;;2.47;1.40;;;;;;;7.32;48.76;98120.19;5056711;28;20244;-74
2023/12/28 03:40:28;;;;;;;2.00;1.90;;;;;;;7.35;48.82;98114.44;5051399;28;20292;-75
2023/12/28 03:42:54;;;;;;;1.95;1.85;;;;;;;7.36;48.81;98113.41;5042295;28;20266;-75
2023/12/28 03:45:21;;;;;;;2.30;1.88;;;;;;;7.56;48.56;98110.22;5042340;28;20232;-75
2023/12/28 03:47:47;;;;;;;2.35;1.67;;;;;;;7.61;48.40;98107.81;5038459;28;20246;-74
2023/12/28 03:50:15;;;;;;;2.10;1.92;;;;;;;7.66;48.00;98113.50;5037111;28;20205;-75
2023/12/28 03:52:43;;;;;;;1.70;1.60;;;;;;;7.88;47.60;98114.47;5041360;28;20204;-75
2023/12/28 03:55:10;;;;;;;2.20;2.00;;;;;;;8.00;47.37;98097.69;5039648;28;20285;-75
2023/12/28 03:57:37;;;;;;;2.53;1.80;;;;;;;8.19;46.40;98101.69;5040017;28;20641;-75
2023/12/28 04:00:05;;;;;;;2.20;2.00;;;;;;;8.16;46.55;98098.50;5036985;28;20265;-75
2023/12/28 04:02:31;;;;;;;1.90;1.70;;;;;;;8.16;46.43;98087.72;5039086;28;20210;-75
2023/12/28 04:04:58;;;;;;;2.00;1.50;;;;;;;8.28;45.90;98105.97;5036499;28;20303;-75
2023/12/28 04:07:28;;;;;;;1.88;1.70;;;;;;;8.34;46.05;98101.72;5038529;28;20563;-75
2023/12/28 04:09:56;;;;;;;2.08;1.88;;;;;;;8.44;45.57;98102.28;5040728;28;20271;-75
2023/12/28 04:12:22;;;;;;;2.05;1.83;;;;;;;8.52;45.67;98091.38;5039650;28;20206;-75
2023/12/28 04:14:49;;;;;;;1.42;1.33;;;;;;;8.50;45.25;98082.63;5022744;28;20204;-75
2023/12/28 04:17:16;;;;;;;1.90;1.70;;;;;;;8.55;45.14;98106.34;5054549;28;20236;-74
2023/12/28 04:19:42;;;;;;;1.70;1.60;;;;;;;8.57;44.95;98099.75;5037098;28;20300;-75
2023/12/28 04:22:09;;;;;;;2.22;1.90;;;;;;;8.61;45.26;98106.44;5037908;28;20232;-75
2023/12/28 04:24:37;;;;;;;1.88;1.70;;;;;;;8.70;44.51;98102.63;5006917;28;20231;-75
2023/12/28 04:27:10;;;;;;;2.05;1.85;;;;;;;8.86;44.54;98098.00;5036926;28;20201;-75
2023/12/28 04:29:37;;;;;;;1.70;1.60;;;;;;;8.95;43.95;98091.50;5037654;28;20285;-75
2023/12/28 04:32:04;;;;;;;1.60;1.50;;;;;;;8.99;44.16;98092.78;5038507;28;20208;-75
2023/12/28 04:34:30;;;;;;;2.10;1.90;;;;;;;9.04;44.25;98084.94;5053072;28;20276;-75
2023/12/28 04:36:57;;;;;;;1.70;1.60;;;;;;;9.15;44.20;98087.13;5040026;28;20223;-75
2023/12/28 04:39:23;;;;;;;1.70;1.60;;;;;;;9.22;43.58;98085.34;5037894;28;20202;-75
2023/12/28 04:41:50;;;;;;;1.40;1.30;;;;;;;9.37;43.16;98080.72;5020265;28;20202;-75
2023/12/28 04:44:18;;;;;;;1.70;1.60;;;;;;;9.39;43.06;98078.66;5039181;28;20229;-75
2023/12/28 04:46:45;;;;;;;1.50;1.40;;;;;;;9.40;43.25;98085.75;5020318;28;20628;-75
2023/12/28 04:49:12;;;;;;;1.83;1.73;;;;;;;9.28;43.48;98065.66;5021930;28;20237;-75
2023/12/28 04:51:43;;;;;;;1.98;1.77;;;;;;;9.42;43.28;98078.25;5023696;28;20848;-75
2023/12/28 04:54:11;;;;;;;1.88;1.70;;;;;;;9.44;43.11;98070.78;5039127;28;20564;-75
2023/12/28 04:56:40;;;;;;;3.03;1.70;;;;;;;9.38;43.40;98068.88;5042219;28;20865;-75
2023/12/28 04:59:07;;;;;;;1.58;1.48;;;;;;;9.44;43.48;98076.19;5046776;28;20251;-75
2023/12/28 05:01:41;;;;;;;1.60;1.50;;;;;;;9.40;43.32;98074.94;5037571;28;20241;-75
2023/12/28 05:04:08;;;;;;;1.90;1.80;;;;;;;9.46;43.08;98077.88;5041273;28;20248;-75
2023/12/28 05:06:35;;;;;;;1.40;1.30;;;;;;;9.44;43.08;98084.28;5037065;28;20288;-75
2023/12/28 05:09:02;;;;;;;2.30;1.42;;;;;;;9.47;43.14;98084.94;5017009;28;20288;-75
2023/12/28 05:11:30;;;;;;;2.20;1.85;;;;;;;9.47;43.41;98087.63;5037028;28;20198;-75
2023/12/28 05:13:57;;;;;;;1.90;1.70;;;;;;;9.46;43.42;98102.19;5035655;28;20277;-75
2023/12/28 05:16:23;;;;;;;1.88;1.70;;;;;;;9.63;42.69;98092.78;5038420;28;20205;-75
2023/12/28 05:18:52;;;;;;;1.70;1.60;;;;;;;9.63;43.13;98093.63;5037643;28;20213;-75
2023/12/28 05:21:18;;;;;;;1.75;1.65;;;;;;;9.64;43.59;98102.56;5037094;28;20290;-75
2023/12/28 05:23:45;;;;;;;3.00;1.50;;;;;;;9.64;43.30;98089.88;5036457;28;20202;-74
2023/12/28 05:26:11;;;;;;;2.00;1.80;;;;;;;9.56;43.96;98102.69;5040309;28;20304;-74
2023/12/28 05:28:38;;;;;;;2.95;1.92;;;;;;;9.57;44.01;98107.06;5040297;28;20228;-74
2023/12/28 05:31:04;;;;;;;1.88;1.67;;;;;;;9.46;43.92;98111.13;5049291;28;20252;-74
2023/12/28 05:33:32;;;;;;;2.55;1.60;;;;;;;9.51;43.95;98124.88;5050602;28;20236;-75
2023/12/28 05:36:00;;;;;;;2.33;1.85;;;;;;;9.66;43.63;98127.53;5029808;28;20204;-75
2023/12/28 05:38:27;;;;;;;1.88;1.77;;;;;;;9.59;43.97;98142.84;5040641;28;20750;-75
2023/12/28 05:40:53;;;;;;;2.70;1.90;;;;;;;9.75;44.04;98147.97;5023269;28;20222;-75
2023/12/28 05:43:20;;;;;;;1.60;1.50;;;;;;;9.87;43.92;98141.00;5033232;28;20651;-74
2023/12/28 05:45:47;;;;;;;1.60;1.50;;;;;;;9.87;44.03;98135.59;5054078;28;20222;-75
2023/12/28 05:48:14;;;;;;;2.10;1.80;;;;;;;9.93;44.21;98139.41;5003624;28;20204;-75
2023/12/28 05:50:40;;;;;;;2.20;1.65;;;;;;;9.92;44.51;98154.78;5038859;28;20210;-75
2023/12/28 05:53:13;;;;;;;2.08;1.88;;;;;;;9.98;44.58;98154.00;5035287;28;20216;-75
2023/12/28 05:55:40;;;;;;;1.75;1.55;;;;;;;10.03;45.22;98148.84;5038280;28;20198;-75
2023/12/28 05:58:06;;;;;;;2.17;1.83;;;;;;;10.11;45.58;98145.97;5040545;28;20624;-74
2023/12/28 06:00:33;;;;;;;2.00;1.80;;;;;;;10.11;46.08;98145.97;5042809;28;20618;-75
2023/12/28 06:03:02;;;;;;;1.90;1.35;;;;;;;10.19;46.18;98141.47;5032797;28;20544;-75
2023/12/28 06:05:29;;;;;;;1.70;1.60;;;;;;;10.30;46.23;98146.38;5049107;28;20217;-75
2023/12/28 06:07:56;;;;;;;1.50;1.40;;;;;;;10.30;46.75;98152.63;5057071;28;20225;-75
2023/12/28 06:10:25;;;;;;;1.70;1.60;;;;;;;10.38;47.03;98157.88;5049105;28;20209;-75
2023/12/28 06:12:52;;;;;;;1.70;1.60;;;;;;;10.52;47.47;98150.66;5037248;28;20208;-75
2023/12/28 06:15:19;;;;;;;1.85;1.75;;;;;;;10.49;47.54;98161.88;5036776;28;20301;-75
2023/12/28 06:17:45;;;;;;;2.17;1.90;;;;;;;10.31;48.72;98166.97;5022505;28;20214;-75
2023/12/28 06:20:12;;;;;;;2.00;1.63;;;;;;;10.38;49.21;98176.81;5020044;28;20213;-75
2023/12/28 06:22:40;;;;;;;2.65;1.40;;;;;;;10.45;49.32;98174.13;5021522;28;20208;-75
2023/12/28 06:25:07;;;;;;;1.60;1.38;;;;;;;10.33;50.22;98159.50;5034289;28;20221;-76
2023/12/28 06:27:36;;;;;;;3.05;1.90;;;;;;;10.42;50.86;98163.69;5022322;28;20888;-75
2023/12/28 06:30:02;;;;;;;2.00;1.33;;;;;;;10.70;50.14;98155.56;5037617;28;20292;-75
2023/12/28 06:32:29;;;;;;;1.63;1.30;;;;;;;10.57;50.20;98153.63;5036730;28;20202;-75
2023/12/28 06:34:56;;;;;;;1.83;1.65;;;;;;;10.52;49.63;98134.44;5022652;28;20244;-75
2023/12/28 06:37:22;;;;;;;1.73;1.58;;;;;;;10.59;50.35;98162.38;5032157;28;20205;-76
2023/12/28 06:39:50;;;;;;;1.52;1.40;;;;;;;10.60;50.59;98163.22;5035490;28;20217;-80
2023/12/28 06:42:16;;;;;;;1.60;1.50;;;;;;;10.52;50.39;98169.59;5040621;28;20232;-75
2023/12/28 06:44:44;;;;;;;1.58;1.48;;;;;;;10.70;49.87;98166.41;5042368;28;20236;-75
2023/12/28 06:47:11;;;;;;;1.33;1.20;;;;;;;10.52;50.48;98169.59;5041017;28;20259;-75
2023/12/28 06:49:38;;;;;;;3.45;1.83;;;;;;;10.45;51.58;98171.44;5039262;28;20284;-75
2023/12/28 06:52:04;;;;;;;2.15;1.85;;;;;;;10.43;54.14;98184.31;5042339;28;20546;-75
2023/12/28 06:54:31;;;;;;;1.83;1.65;;;;;;;10.44;55.85;98186.00;5015515;28;20207;-76
2023/12/28 06:56:58;;;;;;;1.58;1.48;;;;;;;10.63;56.91;98188.00;5042586;28;20293;-75
2023/12/28 06:59:26;;;;;;;1.70;1.33;;;;;;;10.59;57.51;98186.72;5040090;28;20309;-75
2023/12/28 07:01:55;;;;;;;2.13;1.30;;;;;;;10.66;59.63;98194.91;5039817;28;20197;-74
2023/12/28 07:04:25;;;;;;;1.65;1.20;;;;;;;10.49;61.14;98194.34;5041752;28;20324;-77
2023/12/28 07:06:52;;;;;;;1.55;1.38;;;;;;;10.58;61.55;98187.75;5044681;28;20308;-74
2023/12/28 07:09:19;;;;;;;1.65;1.10;;;;;;;10.66;61.99;98198.44;5045516;28;20234;-79
2023/12/28 07:11:48;;;;;;;2.65;1.30;;;;;;;10.67;62.33;98194.69;5048539;28;20198;-78
2023/12/28 07:14:16;;;;;;;1.50;1.25;;;;;;;10.71;62.58;98201.38;5020359;28;20293;-79
2023/12/28 07:16:43;;;;;;;1.58;1.20;;;;;;;10.75;62.70;98205.34;5039038;28;20208;-77
2023/12/28 07:19:11;;;;;;;3.58;1.60;;;;;;;10.99;60.95;98217.59;5038345;28;20206;-69
2023/12/28 07:21:38;;;;;;;2.92;1.67;;;;;;;10.88;60.14;98220.00;5039262;28;20741;-79
2023/12/28 07:24:08;;;;;;;3.47;1.65;;;;;;;10.95;58.32;98210.06;5041240;28;20549;-80
2023/12/28 07:26:38;;;;;;;1.90;1.60;;;;;;;10.82;57.70;98212.69;5041205;28;20336;-80
2023/12/28 07:29:07;;;;;;;2.08;1.70;;;;;;;10.87;57.22;98218.34;5015256;28;20201;-81
2023/12/28 07:31:33;;;;;;;2.72;1.60;;;;;;;10.73;57.34;98210.13;5045370;28;20202;-80
2023/12/28 07:34:00;;;;;;;1.50;1.20;;;;;;;10.76;57.57;98223.25;5043680;28;20288;-80
2023/12/28 07:36:29;;;;;;;2.63;1.85;;;;;;;10.75;57.41;98218.88;5053757;28;20225;-79
2023/12/28 07:38:56;;;;;;;2.40;1.60;;;;;;;10.90;56.45;98220.63;5063470;28;20201;-81
2023/12/28 07:41:22;;;;;;;3.10;2.20;;;;;;;10.72;56.78;98224.69;5060511;28;20217;-81
2023/12/28 07:43:49;;;;;;;3.45;2.05;;;;;;;10.68;56.07;98236.13;5058965;28;20201;-80
2023/12/28 07:46:16;;;;;;;2.78;2.15;;;;;;;10.48;57.69;98235.97;5048931;28;20217;-80
2023/12/28 07:48:42;;;;;;;2.35;1.92;;;;;;;10.46;57.84;98231.78;5034065;28;20201;-80
2023/12/28 07:51:09;;;;;;;3.08;2.17;;;;;;;10.44;58.19;98234.69;5018083;28;20849;-80
2023/12/28 07:53:38;;;;;;;2.65;1.85;;;;;;;10.50;58.18;98233.91;5048543;28;20363;-80
2023/12/28 07:56:06;;;;;;;3.63;2.38;;;;;;;10.57;57.97;98234.81;5043927;28;20197;-80
2023/12/28 07:58:37;;;;;;;2.67;2.10;;;;;;;10.50;59.53;98233.91;5041013;28;20205;-79
2023/12/28 08:01:04;;;;;;;2.20;2.00;;;;;;;10.30;60.91;98233.78;5050628;28;20189;-78
2023/12/28 08:03:32;;;;;;;5.40;2.10;;;;;;;10.52;60.87;98245.38;5064269;28;20228;-79
2023/12/28 08:05:58;;;;;;;3.10;2.40;;;;;;;10.74;60.28;98241.56;5064488;28;20205;-80
2023/12/28 08:08:25;;;;;;;2.20;2.00;;;;;;;10.67;60.94;98232.59;5046237;28;20236;-78
2023/12/28 08:10:53;;;;;;;1.92;1.83;;;;;;;10.72;61.19;98235.50;5037225;28;20206;-78
2023/12/28 08:13:20;;;;;;;2.05;1.85;;;;;;;10.66;61.31;98239.03;5035148;28;20288;-78
2023/12/28 08:15:47;;;;;;;2.58;1.90;;;;;;;10.65;60.68;98248.19;5029884;28;20285;-78
2023/12/28 08:18:13;;;;;;;3.30;2.00;;;;;;;10.40;61.08;98244.22;5033218;28;20210;-73
2023/12/28 08:20:40;;;;;;;3.20;2.20;;;;;;;10.46;61.61;98240.75;5033531;28;20260;-79
2023/12/28 08:23:07;;;;;;;1.77;1.67;;;;;;;10.29;63.97;98242.06;5014156;28;20205;-73
2023/12/28 08:25:34;;;;;;;1.88;1.55;;;;;;;10.33;63.24;98238.78;5036723;28;20221;-74
2023/12/28 08:28:06;;;;;;;1.95;1.65;;;;;;;10.54;63.05;98240.59;5035430;28;20203;-73
2023/12/28 08:30:33;;;;;;;3.55;2.05;;;;;;;10.60;62.48;98239.00;5039898;28;20571;-74
2023/12/28 08:33:01;;;;;;;2.13;1.90;;;;;;;10.60;63.37;98242.53;5020018;28;20289;-82
2023/12/28 08:35:27;;;;;;;2.17;1.83;;;;;;;10.68;63.13;98244.25;5027773;28;20209;-72
2023/12/28 08:37:54;;;;;;;3.70;2.00;;;;;;;10.57;63.00;98242.91;5030398;28;20564;-73
2023/12/28 08:40:21;;;;;;;2.90;1.75;;;;;;;10.58;62.68;98244.59;5037104;28;20674;-71
2023/12/28 08:42:48;;;;;;;2.20;2.00;;;;;;;10.61;60.94;98236.09;5037543;28;20205;-72
2023/12/28 08:45:19;;;;;;;2.10;2.00;;;;;;;10.19;58.34;98236.13;5037858;28;20211;-72
2023/12/28 08:47:45;;;;;;;2.90;2.50;;;;;;;10.09;58.25;98239.97;5038550;28;20301;-72
2023/12/28 08:50:12;;;;;;;4.15;2.15;;;;;;;10.09;59.03;98237.28;5016588;28;20205;-72
2023/12/28 08:52:39;;;;;;;3.08;2.13;;;;;;;9.85;56.86;98251.19;5035345;28;20377;-71
2023/12/28 08:55:06;;;;;;;4.00;2.75;;;;;;;9.96;66.26;98249.84;5036805;28;20216;-72
2023/12/28 08:57:33;;;;;;;2.90;1.80;;;;;;;9.87;71.78;98243.72;5020735;28;20638;-71
2023/12/28 09:00:02;;;;;;;2.10;1.95;;;;;;;9.90;72.56;98248.75;5039392;28;20276;-73
2023/12/28 09:02:31;;;;;;;1.70;1.60;;;;;;;10.10;71.98;98243.53;5034305;28;20571;-79
2023/12/28 09:05:00;;;;;;;2.10;1.70;;;;;;;10.16;71.60;98241.91;5028017;28;20210;-79
2023/12/28 09:07:27;;;;;;;2.22;1.80;;;;;;;10.24;71.04;98229.13;5021164;28;20425;-79
2023/12/28 09:09:54;;;;;;;2.13;1.75;;;;;;;10.25;71.63;98252.44;5036674;28;20254;-79
2023/12/28 09:12:22;;;;;;;2.08;1.65;;;;;;;10.46;71.34;98243.44;5033050;28;20229;-79
2023/12/28 09:14:52;;;;;;;1.73;1.63;;;;;;;10.63;70.32;98223.19;5038782;28;20216;-79
2023/12/28 09:17:19;;;;;;;2.72;2.10;;;;;;;10.43;70.60;98243.84;5034644;28;20201;-81
2023/12/28 09:19:48;;;;;;;2.80;2.40;;;;;;;10.36;70.44;98238.41;5032080;28;20991;-77
2023/12/28 09:22:15;;;;;;;3.88;3.47;;;;;;;10.15;67.92;98240.25;5050390;28;20201;-78
2023/12/28 09:24:43;;;;;;;4.63;3.47;;;;;;;9.84;67.53;98238.72;5037372;28;20284;-78
2023/12/28 09:27:09;;;;;;;3.45;3.15;;;;;;;9.57;67.53;98242.16;5009419;28;20221;-79
2023/12/28 09:29:36;;;;;;;3.53;3.22;;;;;;;9.49;66.93;98247.66;5021136;28;20197;-78
2023/12/28 09:32:03;;;;;;;2.90;2.60;;;;;;;9.32;66.57;98250.63;5037295;28;20212;-78
2023/12/28 09:34:30;;;;;;;3.13;2.83;;;;;;;9.40;66.28;98247.81;5037714;28;20303;-78
2023/12/28 09:36:58;;;;;;;3.13;2.85;;;;;;;9.47;65.56;98247.88;5021108;28;20193;-75
2023/12/28 09:39:25;;;;;;;3.35;2.90;;;;;;;9.62;64.96;98255.94;5040775;28;20630;-78
2023/12/28 09:41:56;;;;;;;3.42;3.00;;;;;;;9.65;63.53;98253.69;5023803;28;20181;-78
2023/12/28 09:44:26;;;;;;;3.38;3.08;;;;;;;9.74;61.88;98254.44;5010855;28;20209;-78
2023/12/28 09:46:55;;;;;;;3.88;3.10;;;;;;;9.66;62.86;98268.03;5002982;28;20232;-77
2023/12/28 09:49:22;;;;;;;5.80;2.88;;;;;;;9.81;61.44;98273.38;5045036;28;20262;-77
2023/12/28 09:51:49;;;;;;;3.70;3.30;;;;;;;9.94;63.50;98271.69;5040547;28;20233;-77
2023/12/28 09:54:21;;;;;;;3.75;3.00;;;;;;;9.98;62.73;98278.38;5037353;28;20224;-77
2023/12/28 09:56:49;;;;;;;3.10;2.80;;;;;;;9.87;64.03;98270.75;5034244;28;20232;-77
2023/12/28 09:59:16;;;;;;;3.92;2.75;;;;;;;9.95;63.15;98277.91;5018825;28;20208;-77
2023/12/28 10:01:44;;;;;;;3.17;2.90;;;;;;;10.24;62.60;98285.09;5034407;28;20208;-77
2023/12/28 10:04:11;;;;;;;4.10;3.65;;;;;;;10.27;63.37;98288.25;5032536;28;20197;-78
2023/12/28 10:06:38;;;;;;;3.38;3.03;;;;;;;10.28;63.68;98283.69;5029916;28;20221;-77
2023/12/28 10:09:09;;;;;;;3.25;2.80;;;;;;;10.23;64.67;98286.13;5029383;28;20612;-78
2023/12/28 10:11:38;;;;;;;4.30;3.60;;;;;;;10.08;64.97;98254.53;5026391;28;20201;-78
2023/12/28 10:14:06;;;;;;;4.80;3.55;;;;;;;10.22;65.33;98281.75;5020466;28;20224;-78
2023/12/28 10:16:33;;;;;;;3.63;3.33;;;;;;;10.42;64.85;98275.47;5037278;28;20255;-77
2023/12/28 10:19:00;;;;;;;3.88;2.85;;;;;;;10.31;66.11;98288.72;5042742;28;20578;-77
2023/12/28 10:21:26;;;;;;;3.55;2.80;;;;;;;10.38;66.09;98273.38;5029276;28;20212;-77
2023/12/28 10:23:54;;;;;;;4.40;3.70;;;;;;;10.46;66.98;98291.31;5022096;28;20224;-76
2023/12/28 10:26:21;;;;;;;4.07;3.67;;;;;;;10.54;66.96;98283.91;5022852;28;20232;-78
2023/12/28 10:28:48;;;;;;;4.47;3.58;;;;;;;10.62;66.03;98275.66;5027772;28;20328;-77
2023/12/28 10:31:16;;;;;;;4.45;3.25;;;;;;;10.66;67.07;98282.34;5032814;28;20281;-79
2023/12/28 10:33:45;;;;;;;4.47;4.07;;;;;;;10.56;67.66;98265.59;5047504;28;20213;-81
2023/12/28 10:36:14;;;;;;;5.53;4.55;;;;;;;10.73;68.20;98263.41;5045229;28;20209;-78
2023/12/28 10:38:42;;;;;;;8.65;6.72;;;;;;;10.79;68.35;98262.63;5034719;28;20289;-74
2023/12/28 10:41:10;;;;;;;9.90;7.05;;;;;;;10.61;70.27;98255.03;5035522;28;20298;-76
2023/12/28 10:43:45;;;;;;;7.78;6.03;;;;;;;10.76;69.54;98265.72;5035766;28;20208;-76
2023/12/28 10:46:21;;;;;;;8.05;6.20;;;;;;;10.69;70.04;98273.84;5033345;28;20796;-76
2023/12/28 10:48:50;;;;;;;7.97;5.93;;;;;;;10.80;70.35;98260.75;5033058;28;20255;-75
2023/12/28 10:51:18;;;;;;;6.97;5.60;;;;;;;10.89;69.98;98265.00;5048179;28;20206;-76
2023/12/28 10:53:49;;;;;;;4.00;3.40;;;;;;;11.19;67.42;98258.28;5007312;28;20194;-76
2023/12/28 10:56:22;;;;;;;3.60;3.30;;;;;;;10.96;67.20;98255.06;5014434;28;20215;-76
2023/12/28 10:58:51;;;;;;;3.25;2.95;;;;;;;10.94;67.39;98252.53;5030834;28;21171;-69
2023/12/28 11:01:24;;;;;;;3.72;2.60;;;;;;;11.07;65.88;98240.94;5032124;28;20234;-69
2023/12/28 11:03:55;;;;;;;3.78;3.33;;;;;;;11.10;66.72;98243.25;5036073;28;20750;-71
2023/12/28 11:06:21;;;;;;;3.55;2.90;;;;;;;11.28;64.38;98237.31;5043675;28;20251;-79
2023/12/28 11:08:51;;;;;;;3.05;2.30;;;;;;;11.17;63.65;98232.44;5045957;28;20571;-79
2023/12/28 11:11:19;;;;;;;3.83;2.70;;;;;;;11.32;63.70;98250.25;5050563;28;20198;-78
2023/12/28 11:13:46;;;;;;;2.83;1.95;;;;;;;11.27;63.18;98231.03;5048249;28;20205;-71
2023/12/28 11:16:14;;;;;;;13.32;3.75;;;;;;;11.36;64.86;98237.97;5034498;28;20215;-78
2023/12/28 11:18:42;;;;;;;2.33;1.95;;;;;;;11.23;63.78;98228.94;5037127;28;20197;-75
2023/12/28 11:21:11;;;;;;;2.33;2.00;;;;;;;11.18;64.67;98236.81;5037278;28;20206;-79
2023/12/28 11:23:38;;;;;;;2.08;1.98;;;;;;;11.13;65.33;98233.88;5036641;28;20296;-75
2023/12/28 11:26:05;;;;;;;1.80;1.50;;;;;;;11.11;65.62;98234.06;5008855;28;20205;-70
2023/12/28 11:28:32;;;;;;;2.20;1.90;;;;;;;11.02;66.17;98227.19;5031846;28;20207;-76
2023/12/28 11:30:58;;;;;;;2.15;1.83;;;;;;;11.02;66.36;98222.59;5016895;28;20248;-76
2023/12/28 11:33:31;;;;;;;2.25;1.75;;;;;;;10.97;66.62;98208.81;5029274;28;20205;-76
2023/12/28 11:35:59;;;;;;;1.45;1.35;;;;;;;11.05;66.78;98211.34;5031634;28;20198;-77
2023/12/28 11:38:26;;;;;;;1.52;1.40;;;;;;;11.03;67.24;98207.19;5035280;28;20714;-71
2023/12/28 11:40:55;;;;;;;2.03;1.83;;;;;;;11.16;66.63;98209.94;5034688;28;20205;-71